Nearby METAR Reports

 

EGVO - Odiham Raf, United Kingdom
Distance from station: ESE 6mi, 10km
Updated: Mon, 20-Aug-2018 14:50 BST
Mostly Cloudy
Mostly Cloudy
 Wind from WSW
Wind: WSW 13 mph , 20 km/h
Temperature: 72°F , 22°C
Dew Point: 63°F , 17°C
Humidity: 73%
Barometer: 30.12 inHg , 1020 hPa
Clouds: Mostly Cloudy
Visibility: 6 miles , 10 km
Cloud details: Mostly Cloudy 2200 ft
Mostly Cloudy 5000 ft
2018/08/20 13:50 EGVO 201350Z 24011KT 9999 BKN022 BKN050 22/17 Q1020 WHT BECMG BKN025 BLU
EGLF - Farnborough, United Kingdom
Distance from station: E 14mi, 22km
Updated: Mon, 20-Aug-2018 15:20 BST
Partly Cloudy
Partly Cloudy
 Wind from SW
Wind: SW 13 mph , 20 km/h
Temperature: 73°F , 23°C
Dew Point: 63°F , 17°C
Humidity: 69%
Barometer: 30.12 inHg , 1020 hPa
Clouds: Partly Cloudy
Visibility: 6 miles , 10 km
Cloud details: Partly Cloudy 2700 ft
Partly Cloudy 4400 ft
2018/08/20 14:20 EGLF 201420Z 23011KT 9999 SCT027 SCT044 23/17 Q1020
 
EGVP - Middle Wallop, United Kingdom
Distance from station: WSW 23mi, 36km
Updated: Mon, 20-Aug-2018 14:50 BST
Mostly Cloudy
Mostly Cloudy
 Wind from WSW
Wind: WSW 7 mph , 11 km/h
Temperature: 73°F , 23°C
Dew Point: 61°F , 16°C
Humidity: 65%
Barometer: 30.12 inHg , 1020 hPa
Clouds: Mostly Cloudy
Visibility: 6 miles , 10 km
Cloud details: Few Clouds 2200 ft
Mostly Cloudy 4000 ft
2018/08/20 13:50 EGVP 201350Z 25006KT 9999 FEW022 BKN040 23/16 Q1020 BLU NOSIG
EGHI - Southampton Wx C, United Kingdom
Distance from station: SSW 24mi, 39km
Updated: Mon, 20-Aug-2018 15:20 BST
Mostly Cloudy
Mostly Cloudy
 Wind from SSW
Wind: SSW 7 mph , 11 km/h
Temperature: 70°F , 21°C
Dew Point: 63°F , 17°C
Humidity: 78%
Barometer: 30.15 inHg , 1021 hPa
Clouds: Mostly Cloudy
Visibility: 6 miles , 10 km
Cloud details: Few Clouds 2500 ft
Mostly Cloudy 4800 ft
2018/08/20 14:20 EGHI 201420Z 21006KT 180V240 9999 FEW025 BKN048 21/17 Q1021
 
EGUB - Benson Raf, United Kingdom
Distance from station: N 24mi, 39km
Updated: Mon, 20-Aug-2018 14:50 BST
Mostly Cloudy
Mostly Cloudy
 Wind from W
Wind: W 10 mph , 17 km/h
Temperature: 72°F , 22°C
Dew Point: 64°F , 18°C
Humidity: 78%
Barometer: 30.12 inHg , 1020 hPa
Clouds: Mostly Cloudy
Visibility: 6 miles , 10 km
Cloud details: Partly Cloudy 2700 ft
Partly Cloudy 3500 ft
Mostly Cloudy 5000 ft
2018/08/20 13:50 EGUB 201350Z AUTO 26009KT 9999 // SCT027/// SCT035/// BKN050/// 22/18 Q1020
EGDM - Boscombe Down, United Kingdom
Distance from station: WSW 29mi, 47km
Updated: Mon, 20-Aug-2018 14:50 BST
Mostly Cloudy
Mostly Cloudy
 Wind from WNW
Wind: WNW 10 mph , 17 km/h
Temperature: 73°F , 23°C
Dew Point: 59°F , 15°C
Humidity: 61%
Barometer: 30.12 inHg , 1020 hPa
Clouds: Mostly Cloudy
Visibility: 6 miles , 10 km
Cloud details: Few Clouds 2600 ft
Mostly Cloudy 4000 ft
2018/08/20 13:50 EGDM 201350Z 29009KT 9999 FEW026 BKN040 23/15 Q1020 BLU NOSIG
 
EGLL - London/Heathrow, United Kingdom
Distance from station: ENE 31mi, 51km
Updated: Mon, 20-Aug-2018 15:20 BST
Few Clouds
Few Clouds
 Wind from WSW
Wind: WSW 10 mph , 17 km/h
Temperature: 77°F , 25°C
Dew Point: 63°F , 17°C
Humidity: 61%
Barometer: 30.12 inHg , 1020 hPa
Clouds: Few Clouds
Visibility: 6 miles , 10 km
Cloud details: Few Clouds 2900 ft
2018/08/20 14:20 EGLL 201420Z AUTO 24009KT 9999 FEW029 25/17 Q1020 NOSIG
EGWU - Northolt Raf, United Kingdom
Distance from station: NE 35mi, 56km
Updated: Mon, 20-Aug-2018 14:50 BST
Mostly Cloudy
Mostly Cloudy
 Wind from SW
Wind: SW 8 mph , 13 km/h
Temperature: 77°F , 25°C
Dew Point: 64°F , 18°C
Humidity: 65%
Barometer: 30.12 inHg , 1020 hPa
Clouds: Mostly Cloudy
Visibility: 6 miles , 10 km
Cloud details: Partly Cloudy 3000 ft
Mostly Cloudy 7000 ft
2018/08/20 13:50 EGWU 201350Z 23007KT 9999 SCT030 BKN070 25/18 Q1020 BLU NOSIG
 
EGVA - Fairford Raf, United Kingdom
Distance from station: NW 40mi, 65km
Updated: Mon, 20-Aug-2018 15:21 BST
Overcast
Overcast
 Wind from W
Wind: W 13 mph , 20 km/h
Temperature: 73°F , 23°C
Dew Point: 63°F , 17°C
Humidity: 69%
Barometer: 30.11 inHg , 1019.6 hPa
Clouds: Overcast
Visibility: 6 miles , 10 km
Cloud details: Overcast 4400 ft
2018/08/20 14:21 EGVA 201421Z AUTO 26011KT 9999 OVC044 23/17 A3011 RMK AO2 SLP197 $
EGKK - London/Gatwick A, United Kingdom
Distance from station: ESE 41mi, 66km
Updated: Mon, 20-Aug-2018 15:20 BST
Partly Cloudy
Partly Cloudy
 Wind from SW
Wind: SW 9 mph , 15 km/h
Temperature: 75°F , 24°C
Dew Point: 64°F , 18°C
Humidity: 69%
Barometer: 30.12 inHg , 1020 hPa
Clouds: Partly Cloudy
Visibility: 6 miles , 10 km
Cloud details: Few Clouds 2700 ft
Partly Cloudy 3800 ft
2018/08/20 14:20 EGKK 201420Z 23008KT 9999 FEW027 SCT038 24/18 Q1020
 
EGVN - Brize Norton Raf, United Kingdom
Distance from station: NNW 41mi, 66km
Updated: Mon, 20-Aug-2018 14:50 BST
Partly Cloudy
Partly Cloudy
 Wind from W
Wind: W 8 mph , 13 km/h
Temperature: 73°F , 23°C
Dew Point: 61°F , 16°C
Humidity: 65%
Barometer: 30.12 inHg , 1020 hPa
Clouds: Partly Cloudy
Visibility: 6 miles , 10 km
Cloud details: Partly Cloudy 2500 ft
Partly Cloudy 4500 ft
2018/08/20 13:50 EGVN 201350Z 26007KT 9999 SCT025 SCT045 23/16 Q1020 BLU NOSIG
EGKA - Shoreham-By-Sea, United Kingdom
Distance from station: SE 45mi, 73km
Updated: Mon, 20-Aug-2018 15:20 BST
Partly Cloudy
Partly Cloudy
 Wind from SW
Wind: SW 15 mph , 24 km/h
Temperature: 72°F , 22°C
Dew Point: 66°F , 19°C
Humidity: 83%
Barometer: 30.12 inHg , 1020 hPa
Clouds: Partly Cloudy
Visibility: 6 miles , 10 km
Cloud details: Few Clouds 800 ft
Partly Cloudy 1700 ft
2018/08/20 14:20 EGKA 201420Z 22013KT 9999 FEW008 SCT017 22/19 Q1020
 
EGHH - Bournemouth Airp, United Kingdom
Distance from station: SW 46mi, 75km
Updated: Mon, 20-Aug-2018 14:50 BST
Mostly Cloudy
Mostly Cloudy
 Wind from SW
Wind: SW 10 mph , 17 km/h
Temperature: 73°F , 23°C
Dew Point: 64°F , 18°C
Humidity: 74%
Barometer: 30.12 inHg , 1020 hPa
Clouds: Mostly Cloudy
Visibility: 6 miles , 10 km
Cloud details: Few Clouds 2100 ft
Mostly Cloudy 3900 ft
2018/08/20 13:50 EGHH 201350Z 23009KT 9999 FEW021 BKN039 23/18 Q1020
EGKB - Biggin Hill, United Kingdom
Distance from station: E 48mi, 77km
Updated: Mon, 20-Aug-2018 15:20 BST
Partly Cloudy
Partly Cloudy
 Wind from SSW
Wind: SSW 8 mph , 13 km/h
Temperature: 73°F , 23°C
Dew Point: 63°F , 17°C
Humidity: 69%
Barometer: 30.12 inHg , 1020 hPa
Clouds: Partly Cloudy
Visibility: 6 miles , 10 km
Cloud details: Partly Cloudy 3000 ft
2018/08/20 14:20 EGKB 201420Z 21007KT 190V250 9999 SCT030 23/17 Q1020

Metar display script from Saratoga-Weather.org